Time;durP1;ratioP1;P1;durP2;ratioP2;P2;SDS_P1;SDS_P2;PMS_P1;PMS_P2;Temp;Humidity;BMP_temperature;BMP_pressure;BME280_temperature;BME280_humidity;BME280_pressure;Samples;Min_cycle;Max_cycle;Signal;HPM_P1;HPM_P2
2023/10/26 00:00:06;;;;;;;;;;;;;;;20.06;67.79;97584.44;2089530;28;19932;-67
2023/10/26 00:01:07;;;;;;;;;;;;;;;20.06;68.08;97597.91;2086656;28;19939;-66
2023/10/26 00:02:08;;;;;;;;;;;;;;;20.05;68.12;97588.19;2088612;28;19929;-67
2023/10/26 00:03:11;;;;;;;;;;;;;;;20.04;68.13;97587.38;2089665;28;19924;-67
2023/10/26 00:04:11;;;;;;;;;;;;;;;20.04;68.11;97576.59;2090456;28;19936;-67
2023/10/26 00:05:14;;;;;;;;;;;;;;;20.04;68.02;97570.41;2092203;28;19940;-67
2023/10/26 00:06:14;;;;;;;;;;;;;;;20.04;68.10;97575.78;2089334;28;20300;-67
2023/10/26 00:07:16;;;;;;;;;;;;;;;20.04;68.15;97567.72;2086155;28;19925;-67
2023/10/26 00:08:16;;;;;;;;;;;;;;;20.04;68.35;97571.22;2087929;28;19924;-67
2023/10/26 00:09:17;;;;;;;;;;;;;;;20.05;68.29;97572.84;2091623;28;20020;-67
2023/10/26 00:10:19;;;;;;;;;;;;;;;20.04;68.21;97571.22;2084956;28;19929;-67
2023/10/26 00:11:19;;;;;;;;;;;;;;;20.04;68.31;97565.03;2089077;28;19932;-67
2023/10/26 00:12:21;;;;;;;;;;;;;;;20.05;67.92;97572.84;2088422;28;19925;-68
2023/10/26 00:13:21;;;;;;;;;;;;;;;20.05;67.91;97570.16;2090152;28;19925;-67
2023/10/26 00:14:23;;;;;;;;;;;;;;;20.06;68.00;97573.69;2090737;28;20015;-67
2023/10/26 00:15:24;;;;;;;;;;;;;;;20.05;67.92;97570.16;2088951;28;19939;-68
2023/10/26 00:16:25;;;;;;;;;;;;;;;20.05;67.82;97562.06;2087841;28;20414;-68
2023/10/26 00:17:26;;;;;;;;;;;;;;;20.05;68.03;97569.34;2089910;28;19928;-68
2023/10/26 00:18:28;;;;;;;;;;;;;;;20.04;67.89;97573.91;2086903;28;20424;-67
2023/10/26 00:19:29;;;;;;;;;;;;;;;20.05;68.19;97574.72;2089021;28;20015;-68
2023/10/26 00:20:30;;;;;;;;;;;;;;;20.06;68.12;97579.88;2085415;28;19951;-68
2023/10/26 00:21:32;;;;;;;;;;;;;;;20.04;67.83;97586.56;2083238;28;20399;-68
2023/10/26 00:22:33;;;;;;;;;;;;;;;20.05;67.84;97582.78;2086455;28;19924;-68
2023/10/26 00:23:34;;;;;;;;;;;;;;;20.05;67.93;97588.19;2088732;28;19929;-68
2023/10/26 00:24:35;;;;;;;;;;;;;;;20.04;68.03;97590.06;2088097;28;20345;-68
2023/10/26 00:25:36;;;;;;;;;;;;;;;20.05;68.34;97594.38;2092846;28;19974;-67
2023/10/26 00:26:37;;;;;;;;;;;;;;;20.05;67.87;97590.88;2089192;28;20402;-68
2023/10/26 00:27:40;;;;;;;;;;;;;;;20.06;68.13;97600.59;2088142;28;19924;-68
2023/10/26 00:28:41;;;;;;;;;;;;;;;20.05;67.68;97602.44;2088846;28;19978;-68
2023/10/26 00:29:42;;;;;;;;;;;;;;;20.05;68.04;97604.34;2090855;28;19928;-67
2023/10/26 00:30:43;;;;;;;;;;;;;;;20.06;67.75;97600.59;2089356;28;19932;-67
2023/10/26 00:31:44;;;;;;;;;;;;;;;20.05;67.90;97590.88;2087968;28;20054;-67
2023/10/26 00:32:45;;;;;;;;;;;;;;;20.05;68.00;97598.94;2088027;28;19937;-67
2023/10/26 00:33:47;;;;;;;;;;;;;;;20.06;67.92;97589.84;2088931;27;20316;-67
2023/10/26 00:34:49;;;;;;;;;;;;;;;20.04;67.98;97591.94;2092821;28;19925;-67
2023/10/26 00:35:51;;;;;;;;;;;;;;;20.05;67.92;97585.50;2088621;28;20303;-67
2023/10/26 00:36:52;;;;;;;;;;;;;;;20.06;68.18;97584.44;2091326;28;19928;-67
2023/10/26 00:37:53;;;;;;;;;;;;;;;20.05;68.09;97588.19;2088032;28;19928;-67
2023/10/26 00:38:55;;;;;;;;;;;;;;;20.05;68.22;97589.00;2081737;28;21347;-68
2023/10/26 00:39:55;;;;;;;;;;;;;;;20.04;68.20;97587.38;2088468;28;19924;-68
2023/10/26 00:40:57;;;;;;;;;;;;;;;20.05;68.15;97591.69;2088325;28;20276;-67
2023/10/26 00:41:57;;;;;;;;;;;;;;;20.04;68.09;97587.38;2088485;28;19929;-67
2023/10/26 00:42:59;;;;;;;;;;;;;;;20.04;68.04;97592.75;2085830;28;20486;-67
2023/10/26 00:44:00;;;;;;;;;;;;;;;20.06;67.78;97589.84;2087704;28;20326;-68
2023/10/26 00:45:02;;;;;;;;;;;;;;;20.04;68.05;97591.94;2091868;28;19943;-67
2023/10/26 00:46:03;;;;;;;;;;;;;;;20.04;67.79;97595.44;2090657;28;19932;-67
2023/10/26 00:47:05;;;;;;;;;;;;;;;20.05;68.03;97593.56;2088159;28;20083;-66
2023/10/26 00:48:06;;;;;;;;;;;;;;;20.04;67.93;97587.38;2088332;28;19936;-67
2023/10/26 00:49:12;;;;;;;;;;;;;;;20.04;68.25;97590.06;2089034;28;19946;-67
2023/10/26 00:50:12;;;;;;;;;;;;;;;20.03;67.81;97588.44;2088540;28;20027;-67
2023/10/26 00:51:14;;;;;;;;;;;;;;;20.04;67.84;97589.25;2087954;28;20301;-67
2023/10/26 00:52:15;;;;;;;;;;;;;;;20.03;67.97;97593.81;2088490;28;20421;-67
2023/10/26 00:53:16;;;;;;;;;;;;;;;20.04;67.94;97592.75;2089018;28;19935;-67
2023/10/26 00:54:18;;;;;;;;;;;;;;;20.05;67.74;97585.50;2089218;28;19924;-67
2023/10/26 00:55:20;;;;;;;;;;;;;;;20.04;67.95;97590.06;2091505;28;21382;-67
2023/10/26 00:56:22;;;;;;;;;;;;;;;20.05;67.96;97588.19;2086612;28;19925;-67
2023/10/26 00:57:24;;;;;;;;;;;;;;;20.06;67.79;97587.16;2090424;28;20529;-65
2023/10/26 00:58:26;;;;;;;;;;;;;;;20.04;67.79;97586.56;2088947;28;19940;-67
2023/10/26 00:59:27;;;;;;;;;;;;;;;20.04;67.93;97578.47;2089615;28;20408;-67
2023/10/26 01:00:28;;;;;;;;;;;;;;;20.03;68.01;97579.50;2088719;28;20307;-67
2023/10/26 01:01:30;;;;;;;;;;;;;;;20.03;67.73;97571.44;2084130;28;19974;-67
2023/10/26 01:02:32;;;;;;;;;;;;;;;20.03;67.86;97582.22;2089346;28;20296;-67
2023/10/26 01:03:32;;;;;;;;;;;;;;;20.04;67.72;97581.16;2091158;28;19928;-67
2023/10/26 01:04:35;;;;;;;;;;;;;;;20.04;67.58;97581.16;2089415;28;19979;-67
2023/10/26 01:05:36;;;;;;;;;;;;;;;20.03;67.92;97584.91;2089553;28;20357;-67
2023/10/26 01:06:37;;;;;;;;;;;;;;;20.04;67.66;97581.16;2086482;28;19924;-67
2023/10/26 01:07:39;;;;;;;;;;;;;;;20.03;67.84;97584.91;2089681;28;19931;-67
2023/10/26 01:08:41;;;;;;;;;;;;;;;20.03;67.95;97596.50;2091199;28;20035;-67
2023/10/26 01:09:42;;;;;;;;;;;;;;;20.02;67.87;97600.25;2091052;28;20419;-68
2023/10/26 01:10:43;;;;;;;;;;;;;;;20.03;67.58;97591.13;2088978;28;19948;-67
2023/10/26 01:11:44;;;;;;;;;;;;;;;20.03;67.60;97603.75;2091508;28;19936;-67
2023/10/26 01:12:46;;;;;;;;;;;;;;;20.04;67.87;97597.31;2088283;28;21324;-67
2023/10/26 01:13:47;;;;;;;;;;;;;;;20.03;68.06;97601.06;2090220;28;20311;-68
2023/10/26 01:14:49;;;;;;;;;;;;;;;20.03;67.64;97595.66;2084455;28;20028;-67
2023/10/26 01:15:49;;;;;;;;;;;;;;;20.04;67.77;97592.75;2088873;28;20331;-67
2023/10/26 01:16:51;;;;;;;;;;;;;;;20.03;67.89;97596.50;2089182;28;19934;-67
2023/10/26 01:17:52;;;;;;;;;;;;;;;20.03;67.76;97590.28;2088970;28;20460;-67
2023/10/26 01:18:53;;;;;;;;;;;;;;;20.04;67.93;97583.88;2088277;28;19982;-68
2023/10/26 01:19:55;;;;;;;;;;;;;;;20.03;67.99;97584.91;2089213;28;21625;-67
2023/10/26 01:20:57;;;;;;;;;;;;;;;20.03;67.64;97590.28;2089518;28;19936;-67
2023/10/26 01:21:59;;;;;;;;;;;;;;;20.03;67.86;97590.28;2090511;28;19928;-67
2023/10/26 01:23:01;;;;;;;;;;;;;;;20.02;67.79;97577.88;2090209;28;19928;-67
2023/10/26 01:24:02;;;;;;;;;;;;;;;20.02;67.96;97580.59;2091188;28;19928;-68
2023/10/26 01:25:04;;;;;;;;;;;;;;;20.02;68.08;97577.88;2089713;28;20350;-68
2023/10/26 01:26:04;;;;;;;;;;;;;;;20.01;67.88;97574.38;2089480;28;20421;-67
2023/10/26 01:27:06;;;;;;;;;;;;;;;20.00;67.84;97567.38;2087686;28;19956;-67
2023/10/26 01:28:07;;;;;;;;;;;;;;;20.02;67.83;97569.81;2089616;28;21020;-67
2023/10/26 01:29:07;;;;;;;;;;;;;;;20.00;68.06;97559.31;2090384;28;20643;-67
2023/10/26 01:30:09;;;;;;;;;;;;;;;20.00;68.04;97559.31;2086053;28;19928;-67
2023/10/26 01:31:10;;;;;;;;;;;;;;;20.00;68.08;97556.63;2090043;28;19959;-67
2023/10/26 01:32:12;;;;;;;;;;;;;;;20.00;68.16;97563.84;2089940;28;19931;-67
2023/10/26 01:33:12;;;;;;;;;;;;;;;20.01;67.88;97560.94;2088495;28;19933;-67
2023/10/26 01:34:13;;;;;;;;;;;;;;;20.01;68.13;97558.25;2085369;28;19943;-67
2023/10/26 01:35:14;;;;;;;;;;;;;;;20.01;67.89;97560.13;2087466;28;19986;-67
2023/10/26 01:36:15;;;;;;;;;;;;;;;20.01;68.14;97560.94;2087927;28;19928;-67
2023/10/26 01:37:17;;;;;;;;;;;;;;;20.00;68.10;97555.78;2090619;28;19924;-67
2023/10/26 01:38:18;;;;;;;;;;;;;;;20.00;67.92;97561.16;2087400;28;19933;-67
2023/10/26 01:39:19;;;;;;;;;;;;;;;20.02;68.23;97561.75;2084612;28;20259;-67
2023/10/26 01:40:21;;;;;;;;;;;;;;;20.02;67.89;97561.75;2082023;28;19924;-66
2023/10/26 01:41:21;;;;;;;;;;;;;;;20.01;67.93;97549.34;2094424;28;19932;-67
2023/10/26 01:42:22;;;;;;;;;;;;;;;20.02;68.27;97550.97;2087346;28;20477;-67
2023/10/26 01:43:25;;;;;;;;;;;;;;;20.01;68.22;97543.97;2090584;28;19933;-66
2023/10/26 01:44:25;;;;;;;;;;;;;;;20.02;67.84;97550.97;2084532;28;19936;-67
2023/10/26 01:45:27;;;;;;;;;;;;;;;20.02;67.96;97557.16;2089152;28;19939;-67
2023/10/26 01:46:27;;;;;;;;;;;;;;;20.02;67.98;97535.63;2089243;28;20380;-66
2023/10/26 01:47:29;;;;;;;;;;;;;;;20.04;68.14;97540.78;2087045;28;19968;-66
2023/10/26 01:48:29;;;;;;;;;;;;;;;20.04;68.00;97538.09;2092620;27;19928;-66
2023/10/26 01:49:31;;;;;;;;;;;;;;;20.03;68.30;97541.84;2092005;28;20030;-67
2023/10/26 01:50:32;;;;;;;;;;;;;;;20.03;67.89;97541.84;2091906;28;19935;-67
2023/10/26 01:51:34;;;;;;;;;;;;;;;20.02;68.42;97542.91;2088509;28;19925;-67
2023/10/26 01:52:36;;;;;;;;;;;;;;;20.03;67.98;97547.22;2088533;28;20007;-67
2023/10/26 01:53:38;;;;;;;;;;;;;;;20.02;68.04;97554.47;2091781;28;19960;-67
2023/10/26 01:54:38;;;;;;;;;;;;;;;20.03;68.28;97547.22;2089232;28;20349;-66
2023/10/26 01:55:40;;;;;;;;;;;;;;;20.03;67.94;97552.59;2091930;28;19936;-67
2023/10/26 01:56:41;;;;;;;;;;;;;;;20.04;68.05;97548.88;2089205;28;19932;-67
2023/10/26 01:57:42;;;;;;;;;;;;;;;20.03;67.88;97552.59;2091387;28;19931;-66
2023/10/26 01:58:43;;;;;;;;;;;;;;;20.03;67.72;97561.53;2090076;28;19932;-67
2023/10/26 01:59:45;;;;;;;;;;;;;;;20.03;68.15;97557.97;2089231;28;19928;-67
2023/10/26 02:00:46;;;;;;;;;;;;;;;20.03;67.89;97557.97;2089827;28;19932;-67
2023/10/26 02:01:47;;;;;;;;;;;;;;;20.02;67.87;97554.47;2084129;28;19980;-67
2023/10/26 02:02:49;;;;;;;;;;;;;;;20.03;68.31;97549.91;2089840;28;20303;-67
2023/10/26 02:03:51;;;;;;;;;;;;;;;20.02;68.01;97553.66;2090760;28;19976;-67
2023/10/26 02:04:51;;;;;;;;;;;;;;;20.03;67.95;97545.38;2091747;28;19929;-67
2023/10/26 02:05:53;;;;;;;;;;;;;;;20.02;68.09;97545.59;2092497;28;20296;-66
2023/10/26 02:06:53;;;;;;;;;;;;;;;20.03;68.05;97553.44;2089529;28;20319;-67
2023/10/26 02:07:56;;;;;;;;;;;;;;;20.01;67.98;97549.34;2089349;28;20043;-67
2023/10/26 02:08:57;;;;;;;;;;;;;;;20.00;68.16;97545.00;2093051;28;19931;-67
2023/10/26 02:09:59;;;;;;;;;;;;;;;19.99;67.83;97554.97;2089550;28;20027;-67
2023/10/26 02:10:59;;;;;;;;;;;;;;;19.99;68.19;97551.47;2087332;28;20016;-67
2023/10/26 02:12:01;;;;;;;;;;;;;;;20.01;68.22;97554.75;2089701;28;20411;-67
2023/10/26 02:13:02;;;;;;;;;;;;;;;20.01;68.10;97558.25;2088087;28;19943;-67
2023/10/26 02:14:03;;;;;;;;;;;;;;;20.01;68.03;97554.75;2089125;28;20003;-67
2023/10/26 02:15:05;;;;;;;;;;;;;;;20.02;67.87;97551.78;2085735;28;20311;-62
2023/10/26 02:16:06;;;;;;;;;;;;;;;20.01;67.99;97549.34;2089395;28;19928;-67
2023/10/26 02:17:08;;;;;;;;;;;;;;;20.00;68.01;97555.78;2089127;28;19975;-67
2023/10/26 02:18:08;;;;;;;;;;;;;;;20.00;67.76;97553.09;2090598;28;19968;-67
2023/10/26 02:19:10;;;;;;;;;;;;;;;20.00;68.05;97545.84;2087419;28;21351;-67
2023/10/26 02:20:11;;;;;;;;;;;;;;;19.99;67.98;97546.06;2089985;28;19928;-67
2023/10/26 02:21:12;;;;;;;;;;;;;;;19.98;67.83;97547.13;2085210;28;19925;-67
2023/10/26 02:22:14;;;;;;;;;;;;;;;19.99;67.89;97549.56;2087784;28;20462;-67
2023/10/26 02:23:17;;;;;;;;;;;;;;;20.00;68.02;97550.38;2087875;28;19928;-67
2023/10/26 02:24:18;;;;;;;;;;;;;;;19.99;68.04;97552.28;2086132;28;20023;-67
2023/10/26 02:25:20;;;;;;;;;;;;;;;20.01;67.73;97546.66;2087567;28;19935;-66
2023/10/26 02:26:20;;;;;;;;;;;;;;;20.00;67.99;97551.22;2085795;28;19939;-67
2023/10/26 02:27:21;;;;;;;;;;;;;;;20.01;67.70;97549.34;2086246;28;20030;-67
2023/10/26 02:28:23;;;;;;;;;;;;;;;20.01;67.61;97546.66;2090833;28;19958;-67
2023/10/26 02:29:23;;;;;;;;;;;;;;;20.00;67.79;97545.84;2088724;28;19976;-67
2023/10/26 02:30:25;;;;;;;;;;;;;;;19.99;67.74;97546.88;2085040;28;20514;-67
2023/10/26 02:31:25;;;;;;;;;;;;;;;20.02;67.66;97545.59;2085682;28;19932;-67
2023/10/26 02:32:27;;;;;;;;;;;;;;;20.01;67.78;97543.97;2088746;28;20776;-66
2023/10/26 02:33:28;;;;;;;;;;;;;;;20.01;67.56;97543.97;2088076;28;19940;-67
2023/10/26 02:34:29;;;;;;;;;;;;;;;20.02;67.95;97537.53;2089489;28;19959;-67
2023/10/26 02:35:30;;;;;;;;;;;;;;;20.02;67.64;97532.13;2088438;28;19928;-66
2023/10/26 02:36:31;;;;;;;;;;;;;;;20.01;67.86;97543.97;2087221;28;19932;-67
2023/10/26 02:37:37;;;;;;;;;;;;;;;20.01;67.61;97541.28;2087949;28;19963;-67
2023/10/26 02:38:40;;;;;;;;;;;;;;;20.00;67.79;97548.53;2088072;28;19972;-67
2023/10/26 02:39:41;;;;;;;;;;;;;;;20.00;67.72;97542.31;2087769;28;19936;-66
2023/10/26 02:40:43;;;;;;;;;;;;;;;20.01;67.96;97546.66;2088233;28;19983;-67
2023/10/26 02:41:43;;;;;;;;;;;;;;;20.01;67.70;97547.47;2087091;28;19970;-67
2023/10/26 02:42:45;;;;;;;;;;;;;;;20.01;67.82;97549.34;2091133;28;19931;-67
2023/10/26 02:43:45;;;;;;;;;;;;;;;20.01;67.73;97543.97;2089498;28;19929;-67
2023/10/26 02:44:47;;;;;;;;;;;;;;;20.00;67.68;97548.53;2088717;27;19979;-67
2023/10/26 02:45:47;;;;;;;;;;;;;;;20.01;67.65;97546.66;2080311;28;20458;-67
2023/10/26 02:46:49;;;;;;;;;;;;;;;20.00;67.65;97545.00;2089653;28;19925;-67
2023/10/26 02:47:50;;;;;;;;;;;;;;;20.00;67.84;97545.00;2087448;28;20034;-67
2023/10/26 02:48:51;;;;;;;;;;;;;;;20.01;67.80;97546.66;2087973;28;19924;-67
2023/10/26 02:49:52;;;;;;;;;;;;;;;20.00;67.94;97539.63;2087884;28;19925;-67
2023/10/26 02:50:52;;;;;;;;;;;;;;;19.99;67.69;97544.19;2088445;28;20303;-67
2023/10/26 02:51:54;;;;;;;;;;;;;;;20.01;67.53;97530.50;2088759;28;19925;-67
2023/10/26 02:52:54;;;;;;;;;;;;;;;19.99;67.59;97533.44;2088178;28;19932;-67
2023/10/26 02:53:57;;;;;;;;;;;;;;;19.99;67.79;97525.34;2089856;28;20277;-67
2023/10/26 02:54:58;;;;;;;;;;;;;;;19.99;67.60;97529.94;2088819;28;19929;-67
2023/10/26 02:56:00;;;;;;;;;;;;;;;19.98;67.75;97529.13;2088359;28;19960;-67
2023/10/26 02:57:00;;;;;;;;;;;;;;;19.98;67.69;97528.31;2087968;28;19924;-67
2023/10/26 02:58:02;;;;;;;;;;;;;;;19.96;67.53;97520.47;2092375;28;20314;-67
2023/10/26 02:59:02;;;;;;;;;;;;;;;19.98;67.92;97528.31;2092591;28;19929;-67
2023/10/26 03:00:05;;;;;;;;;;;;;;;19.98;67.63;97528.31;2088822;28;20016;-67
2023/10/26 03:01:06;;;;;;;;;;;;;;;19.97;67.54;97529.34;2088559;28;20457;-66
2023/10/26 03:02:08;;;;;;;;;;;;;;;19.97;67.52;97526.66;2091633;28;19952;-67
2023/10/26 03:03:08;;;;;;;;;;;;;;;19.97;67.81;97529.34;2088509;28;20315;-66
2023/10/26 03:04:10;;;;;;;;;;;;;;;19.96;67.50;97525.84;2091335;28;19964;-67
2023/10/26 03:05:10;;;;;;;;;;;;;;;19.96;67.78;97519.66;2086479;28;19924;-67
2023/10/26 03:06:12;;;;;;;;;;;;;;;19.95;67.68;97518.03;2089112;28;19924;-67
2023/10/26 03:07:12;;;;;;;;;;;;;;;19.95;67.87;97524.22;2089518;28;20327;-67
2023/10/26 03:08:14;;;;;;;;;;;;;;;19.96;67.81;97525.84;2089290;28;20015;-67
2023/10/26 03:09:16;;;;;;;;;;;;;;;19.97;67.58;97526.66;2089539;28;19925;-67
2023/10/26 03:10:18;;;;;;;;;;;;;;;19.98;67.53;97528.31;2088071;28;21912;-66
2023/10/26 03:11:19;;;;;;;;;;;;;;;19.98;67.49;97518.34;2089226;28;19928;-67
2023/10/26 03:12:19;;;;;;;;;;;;;;;19.98;67.45;97525.63;2088725;28;19925;-67
2023/10/26 03:13:21;;;;;;;;;;;;;;;19.98;67.66;97525.63;2089595;28;19929;-67
2023/10/26 03:14:22;;;;;;;;;;;;;;;19.98;67.84;97528.31;2089420;28;19924;-67
2023/10/26 03:15:22;;;;;;;;;;;;;;;19.97;67.40;97526.66;2081712;28;19924;-67
2023/10/26 03:16:24;;;;;;;;;;;;;;;19.98;67.78;97520.22;2088729;28;19934;-67
2023/10/26 03:17:24;;;;;;;;;;;;;;;19.97;67.81;97526.66;2089137;28;20771;-67
2023/10/26 03:18:26;;;;;;;;;;;;;;;19.97;67.62;97526.66;2088527;28;19940;-67
2023/10/26 03:19:26;;;;;;;;;;;;;;;19.97;67.75;97530.16;2088016;28;19935;-67
2023/10/26 03:20:28;;;;;;;;;;;;;;;19.98;67.50;97533.69;2089168;28;19935;-67
2023/10/26 03:21:28;;;;;;;;;;;;;;;19.98;67.63;97533.69;2086997;28;20402;-67
2023/10/26 03:22:30;;;;;;;;;;;;;;;19.98;67.67;97531.81;2089403;28;19939;-67
2023/10/26 03:23:31;;;;;;;;;;;;;;;19.98;67.44;97533.69;2087288;28;20307;-67
2023/10/26 03:24:33;;;;;;;;;;;;;;;19.98;67.40;97549.84;2085553;28;19943;-66
2023/10/26 03:25:34;;;;;;;;;;;;;;;19.97;67.96;97537.41;2089411;28;19935;-67
2023/10/26 03:26:36;;;;;;;;;;;;;;;19.96;67.50;97541.97;2087920;28;20628;-67
2023/10/26 03:27:36;;;;;;;;;;;;;;;19.98;67.61;97541.75;2086611;28;20306;-67
2023/10/26 03:28:38;;;;;;;;;;;;;;;19.97;67.68;97546.31;2091341;28;20011;-67
2023/10/26 03:29:38;;;;;;;;;;;;;;;19.97;67.95;97542.78;2088737;28;19924;-67
2023/10/26 03:30:40;;;;;;;;;;;;;;;19.97;67.78;97545.50;2086344;28;20566;-67
2023/10/26 03:31:41;;;;;;;;;;;;;;;19.97;67.75;97553.56;2089801;28;19936;-67
2023/10/26 03:32:42;;;;;;;;;;;;;;;19.97;67.83;97559.75;2086114;28;20875;-67
2023/10/26 03:33:43;;;;;;;;;;;;;;;19.98;67.91;97553.34;2091266;28;19932;-67
2023/10/26 03:34:44;;;;;;;;;;;;;;;19.96;67.54;97549.25;2092165;28;19940;-67
2023/10/26 03:35:45;;;;;;;;;;;;;;;19.95;67.55;97561.88;2090306;28;20012;-67
2023/10/26 03:36:46;;;;;;;;;;;;;;;19.97;67.87;97550.88;2091905;28;19928;-67
2023/10/26 03:37:48;;;;;;;;;;;;;;;19.96;67.73;97554.63;2090012;28;20455;-67
2023/10/26 03:38:50;;;;;;;;;;;;;;;19.97;68.02;97558.94;2089764;28;20050;-67
2023/10/26 03:39:53;;;;;;;;;;;;;;;19.95;67.70;97545.75;2091288;28;19960;-66
2023/10/26 03:40:53;;;;;;;;;;;;;;;19.96;67.94;97547.38;2092030;28;20406;-67
2023/10/26 03:41:55;;;;;;;;;;;;;;;19.97;67.78;97550.88;2089924;28;19932;-67
2023/10/26 03:42:55;;;;;;;;;;;;;;;19.99;67.73;97556.84;2092266;28;19935;-67
2023/10/26 03:43:57;;;;;;;;;;;;;;;19.96;67.71;97557.31;2089744;28;20044;-67
2023/10/26 03:44:57;;;;;;;;;;;;;;;19.96;67.62;97555.44;2090795;28;19932;-67
2023/10/26 03:45:59;;;;;;;;;;;;;;;19.97;67.67;97548.19;2088977;28;20007;-67
2023/10/26 03:47:00;;;;;;;;;;;;;;;19.96;67.87;97557.31;2087076;28;19933;-67
2023/10/26 03:48:03;;;;;;;;;;;;;;;19.97;67.66;97553.56;2090728;28;21369;-67
2023/10/26 03:49:03;;;;;;;;;;;;;;;19.95;67.65;97553.81;2092789;28;20023;-67
2023/10/26 03:50:04;;;;;;;;;;;;;;;19.96;67.75;97558.13;2090648;28;19932;-66
2023/10/26 03:51:06;;;;;;;;;;;;;;;19.95;67.56;97555.69;2090467;28;20705;-67
2023/10/26 03:52:07;;;;;;;;;;;;;;;19.96;67.98;97551.94;2086564;28;19939;-67
2023/10/26 03:53:08;;;;;;;;;;;;;;;19.97;67.71;97558.94;2083092;28;19959;-66
2023/10/26 03:54:09;;;;;;;;;;;;;;;19.96;67.51;97557.31;2090171;28;20391;-67
2023/10/26 03:55:11;;;;;;;;;;;;;;;19.96;67.60;97558.13;2088021;28;19939;-67
2023/10/26 03:56:12;;;;;;;;;;;;;;;19.96;67.85;97551.94;2086582;28;20654;-67
2023/10/26 03:57:13;;;;;;;;;;;;;;;19.96;67.71;97551.94;2086921;28;20410;-66
2023/10/26 03:58:15;;;;;;;;;;;;;;;19.95;67.71;97550.31;2089642;28;19924;-67
2023/10/26 03:59:16;;;;;;;;;;;;;;;19.95;67.37;97547.63;2090354;28;19928;-67
2023/10/26 04:00:17;;;;;;;;;;;;;;;19.96;67.76;97551.94;2092279;28;19933;-67
2023/10/26 04:01:18;;;;;;;;;;;;;;;19.97;67.74;97550.88;2089191;28;20011;-67
2023/10/26 04:02:19;;;;;;;;;;;;;;;19.96;67.51;97541.19;2092046;28;20306;-67
2023/10/26 04:03:20;;;;;;;;;;;;;;;19.97;67.76;97548.19;2089278;28;19924;-67
2023/10/26 04:04:21;;;;;;;;;;;;;;;19.96;67.70;97558.13;2092682;28;19924;-67
2023/10/26 04:05:22;;;;;;;;;;;;;;;19.95;67.71;97561.88;2090964;28;19925;-67
2023/10/26 04:06:24;;;;;;;;;;;;;;;19.94;67.69;97560.25;2088609;28;19960;-67
2023/10/26 04:07:24;;;;;;;;;;;;;;;19.95;67.36;97555.69;2090731;28;19932;-67
2023/10/26 04:08:26;;;;;;;;;;;;;;;19.95;67.77;97561.88;2090464;28;20016;-67
2023/10/26 04:09:27;;;;;;;;;;;;;;;19.95;67.48;97561.06;2090549;28;19939;-67
2023/10/26 04:10:30;;;;;;;;;;;;;;;19.96;67.64;97557.31;2090957;28;19974;-67
2023/10/26 04:11:31;;;;;;;;;;;;;;;19.96;67.45;97566.22;2089909;28;19975;-67
2023/10/26 04:12:33;;;;;;;;;;;;;;;19.96;67.45;97554.63;2091942;28;19924;-68
2023/10/26 04:13:34;;;;;;;;;;;;;;;19.96;67.54;97562.69;2091424;28;19999;-67
2023/10/26 04:14:35;;;;;;;;;;;;;;;19.93;67.68;97557.81;2090369;28;19959;-67
2023/10/26 04:15:36;;;;;;;;;;;;;;;19.94;67.57;97554.84;2085478;28;20132;-67
2023/10/26 04:16:38;;;;;;;;;;;;;;;19.94;67.61;97554.03;2089069;28;19929;-67
2023/10/26 04:17:39;;;;;;;;;;;;;;;19.95;67.45;97561.06;2089721;28;20161;-68
2023/10/26 04:18:40;;;;;;;;;;;;;;;19.93;67.51;97561.31;2092452;28;20384;-67
2023/10/26 04:19:41;;;;;;;;;;;;;;;19.94;67.39;97570.19;2091869;28;19935;-67
2023/10/26 04:20:43;;;;;;;;;;;;;;;19.92;67.40;97569.59;2091944;28;19958;-67
2023/10/26 04:21:44;;;;;;;;;;;;;;;19.96;67.53;97570.78;2088274;28;19932;-65
2023/10/26 04:22:45;;;;;;;;;;;;;;;19.96;67.54;97568.09;2089651;28;19964;-67
2023/10/26 04:23:49;;;;;;;;;;;;;;;19.98;67.51;97565.97;2093545;28;20255;-68
2023/10/26 04:24:51;;;;;;;;;;;;;;;19.99;67.79;97568.41;2088188;28;20764;-68
2023/10/26 04:25:53;;;;;;;;;;;;;;;19.98;67.21;97568.69;2090297;28;22018;-68
2023/10/26 04:26:54;;;;;;;;;;;;;;;19.98;67.34;97569.47;2088884;28;19949;-69
2023/10/26 04:27:55;;;;;;;;;;;;;;;19.97;67.15;97572.41;2089131;28;19933;-68
2023/10/26 04:28:56;;;;;;;;;;;;;;;19.95;67.44;97578.03;2090932;28;19935;-68
2023/10/26 04:29:57;;;;;;;;;;;;;;;19.94;67.46;97573.69;2090914;28;19935;-68
2023/10/26 04:30:58;;;;;;;;;;;;;;;19.92;67.26;97567.75;2089873;28;19936;-68
2023/10/26 04:32:00;;;;;;;;;;;;;;;19.92;67.60;97572.28;2090952;28;19968;-68
2023/10/26 04:33:00;;;;;;;;;;;;;;;19.91;67.23;97567.97;2090918;28;19932;-68
2023/10/26 04:34:01;;;;;;;;;;;;;;;19.90;67.32;97569.03;2088144;28;19929;-68
2023/10/26 04:35:03;;;;;;;;;;;;;;;19.89;67.32;97567.38;2091857;28;19994;-68
2023/10/26 04:36:05;;;;;;;;;;;;;;;19.89;67.47;97567.38;2084270;28;19928;-68
2023/10/26 04:37:07;;;;;;;;;;;;;;;19.87;67.13;97564.94;2089199;28;19932;-67
2023/10/26 04:38:08;;;;;;;;;;;;;;;19.85;67.56;97562.47;2088490;28;20473;-68
2023/10/26 04:39:10;;;;;;;;;;;;;;;19.87;67.43;97559.56;2090841;28;19925;-67
2023/10/26 04:40:11;;;;;;;;;;;;;;;19.86;67.16;97555.22;2086579;28;20355;-68
2023/10/26 04:41:14;;;;;;;;;;;;;;;19.85;67.66;97557.09;2090429;28;20518;-68
2023/10/26 04:42:14;;;;;;;;;;;;;;;19.91;67.61;97554.53;2092174;28;19924;-68
2023/10/26 04:43:16;;;;;;;;;;;;;;;19.99;66.93;97557.66;2087335;28;19930;-68
2023/10/26 04:44:18;;;;;;;;;;;;;;;20.01;66.98;97549.34;2089988;28;19933;-67
2023/10/26 04:45:20;;;;;;;;;;;;;;;19.99;67.26;97556.84;2090274;28;19925;-68
2023/10/26 04:46:20;;;;;;;;;;;;;;;19.97;66.91;97551.69;2090608;28;19932;-68
2023/10/26 04:47:23;;;;;;;;;;;;;;;19.95;67.27;97555.69;2079821;28;20025;-66
2023/10/26 04:48:24;;;;;;;;;;;;;;;19.92;67.00;97550.75;2088782;28;19963;-68
2023/10/26 04:49:25;;;;;;;;;;;;;;;19.90;67.16;97544.81;2088075;28;19928;-68
2023/10/26 04:50:26;;;;;;;;;;;;;;;19.89;67.00;97540.47;2090582;28;19925;-68
2023/10/26 04:51:28;;;;;;;;;;;;;;;19.89;66.99;97545.84;2089653;28;19982;-69
2023/10/26 04:52:32;;;;;;;;;;;;;;;19.88;67.00;97545.06;2084970;28;19932;-67
2023/10/26 04:53:34;;;;;;;;;;;;;;;19.88;67.14;97544.22;2091246;28;20406;-67
2023/10/26 04:54:35;;;;;;;;;;;;;;;19.86;67.40;97552.53;2090100;28;20252;-68
2023/10/26 04:55:36;;;;;;;;;;;;;;;19.86;66.97;97553.38;2084281;28;20002;-68
2023/10/26 04:56:39;;;;;;;;;;;;;;;19.86;67.17;97548.00;2088971;28;20395;-67
2023/10/26 04:57:39;;;;;;;;;;;;;;;19.86;67.20;97556.06;2083179;28;19943;-68
2023/10/26 04:58:43;;;;;;;;;;;;;;;19.85;66.94;97551.72;2088482;28;20015;-68
2023/10/26 04:59:43;;;;;;;;;;;;;;;19.85;67.02;97550.91;2087691;28;20027;-68
2023/10/26 05:00:45;;;;;;;;;;;;;;;19.85;66.90;97550.91;2084880;28;19928;-68
2023/10/26 05:01:45;;;;;;;;;;;;;;;19.83;66.91;97553.00;2087192;28;19932;-68
2023/10/26 05:02:47;;;;;;;;;;;;;;;19.84;66.96;97555.47;2090284;28;19929;-68
2023/10/26 05:03:47;;;;;;;;;;;;;;;19.83;66.99;97550.31;2088882;28;19924;-69
2023/10/26 05:04:49;;;;;;;;;;;;;;;19.82;66.97;97557.59;2091197;28;20007;-68
2023/10/26 05:05:49;;;;;;;;;;;;;;;19.81;67.03;97555.97;2090495;28;19929;-69
2023/10/26 05:06:51;;;;;;;;;;;;;;;19.84;66.98;97554.66;2090893;28;20023;-69
2023/10/26 05:07:52;;;;;;;;;;;;;;;19.83;66.83;97555.69;2087631;28;19960;-69
2023/10/26 05:08:53;;;;;;;;;;;;;;;19.81;67.16;97550.56;2090988;28;20395;-69
2023/10/26 05:09:54;;;;;;;;;;;;;;;19.80;66.83;97548.91;2089787;28;23148;-69
2023/10/26 05:10:56;;;;;;;;;;;;;;;19.81;67.16;97549.75;2089931;28;19928;-70
2023/10/26 05:11:57;;;;;;;;;;;;;;;19.80;66.86;97559.69;2088875;28;19950;-70
2023/10/26 05:12:59;;;;;;;;;;;;;;;19.81;66.99;97550.56;2090283;28;20077;-68
2023/10/26 05:14:02;;;;;;;;;;;;;;;19.79;67.09;97558.06;2089212;28;19943;-68
2023/10/26 05:15:05;;;;;;;;;;;;;;;19.79;67.09;97557.25;2091944;28;19928;-68
2023/10/26 05:16:06;;;;;;;;;;;;;;;19.78;67.15;97553.75;2084087;28;19929;-68
2023/10/26 05:17:07;;;;;;;;;;;;;;;19.79;66.76;97559.94;2092308;28;20040;-68
2023/10/26 05:18:08;;;;;;;;;;;;;;;19.81;67.02;97561.34;2087067;28;19929;-69
2023/10/26 05:19:09;;;;;;;;;;;;;;;19.85;66.47;97561.66;2090808;28;20027;-70